createdAt,value
2018-09-24T00:00:15.576Z,1027.75
2018-09-24T00:01:14.788Z,1027.82
2018-09-24T00:02:14.727Z,1027.83
2018-09-24T00:03:14.574Z,1027.84
2018-09-24T00:04:14.764Z,1027.88
2018-09-24T00:05:14.794Z,1027.88
2018-09-24T00:06:14.952Z,1027.87
2018-09-24T00:07:14.711Z,1027.93
2018-09-24T00:08:14.727Z,1027.92
2018-09-24T00:09:15.281Z,1027.95
2018-09-24T00:10:14.737Z,1027.96
2018-09-24T00:11:14.598Z,1028.01
2018-09-24T00:12:14.745Z,1027.99
2018-09-24T00:13:15.027Z,1028.07
2018-09-24T00:14:14.862Z,1028.05
2018-09-24T00:15:14.594Z,1028.12
2018-09-24T00:16:14.725Z,1028.16
2018-09-24T00:17:14.746Z,1028.2
2018-09-24T00:18:14.732Z,1028.24
2018-09-24T00:19:14.785Z,1028.21
2018-09-24T00:20:14.706Z,1028.24
2018-09-24T00:21:14.697Z,1028.27
2018-09-24T00:22:14.767Z,1028.31
2018-09-24T00:23:14.552Z,1028.34
2018-09-24T00:24:14.810Z,1028.43
2018-09-24T00:25:14.730Z,1028.42
2018-09-24T00:26:14.868Z,1028.45
2018-09-24T00:27:14.732Z,1028.48
2018-09-24T00:28:14.719Z,1028.46
2018-09-24T00:29:14.761Z,1028.43
2018-09-24T00:30:14.938Z,1028.45
2018-09-24T00:31:14.740Z,1028.49
2018-09-24T00:32:14.680Z,1028.55
2018-09-24T00:33:14.688Z,1028.5
2018-09-24T00:34:14.521Z,1028.57
2018-09-24T00:35:14.549Z,1028.65
2018-09-24T00:36:14.536Z,1028.67
2018-09-24T00:37:14.536Z,1028.67
2018-09-24T00:38:14.534Z,1028.74
2018-09-24T00:39:14.681Z,1028.78
2018-09-24T00:40:14.558Z,1028.79
2018-09-24T00:41:14.551Z,1028.79
2018-09-24T00:42:14.725Z,1028.77
2018-09-24T00:43:14.809Z,1028.84
2018-09-24T00:44:14.794Z,1028.82
2018-09-24T00:45:14.702Z,1028.82
2018-09-24T00:46:14.705Z,1028.88
2018-09-24T00:47:14.601Z,1028.9
2018-09-24T00:48:14.518Z,1028.92
2018-09-24T00:49:14.765Z,1028.86
2018-09-24T00:50:14.556Z,1028.94
2018-09-24T00:51:14.679Z,1028.95
2018-09-24T00:52:14.710Z,1028.94
2018-09-24T00:53:14.824Z,1028.94
2018-09-24T00:54:14.670Z,1028.92
2018-09-24T00:55:14.886Z,1028.91
2018-09-24T00:56:14.704Z,1028.94
2018-09-24T00:57:14.703Z,1028.95
2018-09-24T00:58:14.499Z,1028.94
2018-09-24T00:59:14.485Z,1028.89
2018-09-24T01:00:14.540Z,1028.88
2018-09-24T01:01:15.262Z,1028.93
2018-09-24T01:02:14.737Z,1028.91
2018-09-24T01:03:14.521Z,1028.91
2018-09-24T01:04:14.676Z,1028.87
2018-09-24T01:05:14.744Z,1028.87
2018-09-24T01:06:14.731Z,1028.86
2018-09-24T01:07:14.750Z,1028.88
2018-09-24T01:08:14.556Z,1028.89
2018-09-24T01:09:14.769Z,1028.88
2018-09-24T01:10:14.670Z,1028.9
2018-09-24T01:11:14.567Z,1028.9
2018-09-24T01:12:14.506Z,1028.92
2018-09-24T01:13:14.660Z,1028.96
2018-09-24T01:14:14.488Z,1028.98
2018-09-24T01:15:14.409Z,1029.01
2018-09-24T01:16:14.635Z,1029.06
2018-09-24T01:17:14.724Z,1029.03
2018-09-24T01:18:14.664Z,1029.07
2018-09-24T01:19:14.598Z,1029.11
2018-09-24T01:20:14.835Z,1029.13
2018-09-24T01:21:14.542Z,1029.12
2018-09-24T01:22:14.959Z,1029.16
2018-09-24T01:23:15.195Z,1029.17
2018-09-24T01:24:14.528Z,1029.13
2018-09-24T01:25:14.501Z,1029.15
2018-09-24T01:26:15.045Z,1029.17
2018-09-24T01:27:14.683Z,1029.21
2018-09-24T01:28:14.678Z,1029.23
2018-09-24T01:29:14.619Z,1029.24
2018-09-24T01:30:14.632Z,1029.24
2018-09-24T01:31:14.672Z,1029.32
2018-09-24T01:32:14.620Z,1029.3
2018-09-24T01:33:14.789Z,1029.37
2018-09-24T01:34:14.493Z,1029.34
2018-09-24T01:35:14.568Z,1029.35
2018-09-24T01:36:14.660Z,1029.39
2018-09-24T01:37:14.803Z,1029.43
2018-09-24T01:38:14.788Z,1029.45
2018-09-24T01:39:14.646Z,1029.4
2018-09-24T01:40:14.740Z,1029.47
2018-09-24T01:41:14.751Z,1029.49
2018-09-24T01:42:14.669Z,1029.51
2018-09-24T01:43:14.601Z,1029.51
2018-09-24T01:44:14.460Z,1029.51
2018-09-24T01:45:14.541Z,1029.53
2018-09-24T01:46:14.606Z,1029.62
2018-09-24T01:47:14.434Z,1029.62
2018-09-24T01:48:14.649Z,1029.56
2018-09-24T01:49:14.666Z,1029.6
2018-09-24T01:50:14.404Z,1029.61
2018-09-24T01:51:14.968Z,1029.68
2018-09-24T01:52:14.589Z,1029.63
2018-09-24T01:53:14.445Z,1029.71
2018-09-24T01:54:14.601Z,1029.73
2018-09-24T01:55:14.644Z,1029.68
2018-09-24T01:56:14.584Z,1029.71
2018-09-24T01:57:14.585Z,1029.71
2018-09-24T01:58:14.562Z,1029.72
2018-09-24T01:59:14.429Z,1029.76
2018-09-24T02:00:14.473Z,1029.76
2018-09-24T02:01:14.485Z,1029.75
2018-09-24T02:02:14.409Z,1029.73
2018-09-24T02:03:14.561Z,1029.74
2018-09-24T02:04:14.574Z,1029.73
2018-09-24T02:05:14.608Z,1029.77
2018-09-24T02:06:14.724Z,1029.77
2018-09-24T02:07:14.487Z,1029.82
2018-09-24T02:08:14.511Z,1029.81
2018-09-24T02:09:14.484Z,1029.83
2018-09-24T02:10:14.458Z,1029.89
2018-09-24T02:11:14.626Z,1029.87
2018-09-24T02:12:14.704Z,1029.94
2018-09-24T02:13:14.617Z,1029.97
2018-09-24T02:14:14.578Z,1029.94
2018-09-24T02:15:14.733Z,1029.93
2018-09-24T02:16:14.617Z,1029.95
2018-09-24T02:17:14.653Z,1029.97
2018-09-24T02:18:14.735Z,1030.01
2018-09-24T02:19:14.530Z,1030.05
2018-09-24T02:20:14.640Z,1030.11
2018-09-24T02:21:14.628Z,1030.12
2018-09-24T02:22:14.380Z,1030.13
2018-09-24T02:23:14.406Z,1030.21
2018-09-24T02:24:14.514Z,1030.2
2018-09-24T02:25:14.466Z,1030.2
2018-09-24T02:26:14.661Z,1030.23
2018-09-24T02:27:14.627Z,1030.25
2018-09-24T02:28:14.563Z,1030.28
2018-09-24T02:29:14.853Z,1030.3
2018-09-24T02:30:14.649Z,1030.3
2018-09-24T02:31:14.521Z,1030.32
2018-09-24T02:32:14.525Z,1030.33
2018-09-24T02:33:14.561Z,1030.32
2018-09-24T02:34:14.557Z,1030.35
2018-09-24T02:35:14.525Z,1030.34
2018-09-24T02:36:14.582Z,1030.33
2018-09-24T02:37:14.431Z,1030.34
2018-09-24T02:38:14.502Z,1030.33
2018-09-24T02:39:14.377Z,1030.35
2018-09-24T02:40:14.519Z,1030.37
2018-09-24T02:41:14.598Z,1030.32
2018-09-24T02:42:14.679Z,1030.31
2018-09-24T02:43:14.944Z,1030.3
2018-09-24T02:44:14.377Z,1030.33
2018-09-24T02:45:14.543Z,1030.33
2018-09-24T02:46:14.712Z,1030.38
2018-09-24T02:47:14.499Z,1030.4
2018-09-24T02:48:14.508Z,1030.4
2018-09-24T02:49:14.485Z,1030.41
2018-09-24T02:50:14.356Z,1030.45
2018-09-24T02:51:14.537Z,1030.47
2018-09-24T02:52:14.603Z,1030.48
2018-09-24T02:53:14.368Z,1030.53
2018-09-24T02:54:14.455Z,1030.51
2018-09-24T02:55:14.489Z,1030.5
2018-09-24T02:56:14.576Z,1030.5
2018-09-24T02:57:14.556Z,1030.51
2018-09-24T02:58:14.507Z,1030.53
2018-09-24T02:59:14.363Z,1030.49
2018-09-24T03:00:14.364Z,1030.54
2018-09-24T03:01:14.695Z,1030.57
2018-09-24T03:02:14.588Z,1030.63
2018-09-24T03:03:14.360Z,1030.64
2018-09-24T03:04:14.527Z,1030.63
2018-09-24T03:05:14.524Z,1030.69
2018-09-24T03:06:14.501Z,1030.74
2018-09-24T03:07:14.531Z,1030.79
2018-09-24T03:08:14.481Z,1030.78
2018-09-24T03:09:14.582Z,1030.82
2018-09-24T03:10:14.603Z,1030.86
2018-09-24T03:11:14.402Z,1030.84
2018-09-24T03:12:14.513Z,1030.88
2018-09-24T03:13:14.311Z,1030.91
2018-09-24T03:14:14.311Z,1030.97
2018-09-24T03:15:14.456Z,1030.94
2018-09-24T03:16:14.320Z,1030.95
2018-09-24T03:17:14.431Z,1030.98
2018-09-24T03:18:14.450Z,1030.99
2018-09-24T03:19:14.487Z,1030.97
2018-09-24T03:20:14.530Z,1031
2018-09-24T03:21:14.691Z,1030.98
2018-09-24T03:22:14.316Z,1030.99
2018-09-24T03:23:14.452Z,1031.03
2018-09-24T03:24:14.347Z,1030.98
2018-09-24T03:25:14.425Z,1031.04
2018-09-24T03:26:14.791Z,1030.98
2018-09-24T03:27:14.284Z,1031.01
2018-09-24T03:28:14.474Z,1031.06
2018-09-24T03:29:14.339Z,1031.06
2018-09-24T03:30:14.297Z,1031.11
2018-09-24T03:31:14.318Z,1031.08
2018-09-24T03:32:14.457Z,1031.1
2018-09-24T03:33:14.445Z,1031.09
2018-09-24T03:34:14.309Z,1031.14
2018-09-24T03:35:14.283Z,1031.13
2018-09-24T03:36:14.486Z,1031.17
2018-09-24T03:37:14.482Z,1031.13
2018-09-24T03:38:14.479Z,1031.13
2018-09-24T03:39:14.479Z,1031.12
2018-09-24T03:40:14.798Z,1031.1
2018-09-24T03:41:14.506Z,1031.1
2018-09-24T03:42:14.505Z,1031.13
2018-09-24T03:43:14.354Z,1031.14
2018-09-24T03:44:14.488Z,1031.16
2018-09-24T03:45:14.405Z,1031.13
2018-09-24T03:46:14.301Z,1031.11
2018-09-24T03:47:14.335Z,1031.14
2018-09-24T03:48:14.387Z,1031.16
2018-09-24T03:49:14.423Z,1031.18
2018-09-24T03:50:14.598Z,1031.15
2018-09-24T03:51:14.240Z,1031.21
2018-09-24T03:52:14.515Z,1031.19
2018-09-24T03:53:14.412Z,1031.25
2018-09-24T03:54:14.494Z,1031.26
2018-09-24T03:55:14.455Z,1031.28
2018-09-24T03:56:14.480Z,1031.27
2018-09-24T03:57:14.512Z,1031.3
2018-09-24T03:58:14.624Z,1031.29
2018-09-24T03:59:14.563Z,1031.33
2018-09-24T04:00:14.461Z,1031.35
2018-09-24T04:01:14.303Z,1031.38
2018-09-24T04:02:14.421Z,1031.42
2018-09-24T04:03:14.339Z,1031.4
2018-09-24T04:04:14.537Z,1031.42
2018-09-24T04:05:14.430Z,1031.46
2018-09-24T04:06:14.435Z,1031.45
2018-09-24T04:07:14.339Z,1031.5
2018-09-24T04:08:14.581Z,1031.55
2018-09-24T04:09:14.297Z,1031.52
2018-09-24T04:10:14.730Z,1031.57
2018-09-24T04:11:14.579Z,1031.59
2018-09-24T04:12:14.422Z,1031.68
2018-09-24T04:13:14.262Z,1031.72
2018-09-24T04:14:14.475Z,1031.78
2018-09-24T04:15:14.411Z,1031.8
2018-09-24T04:16:14.583Z,1031.85
2018-09-24T04:17:14.416Z,1031.84
2018-09-24T04:18:14.352Z,1031.85
2018-09-24T04:19:14.385Z,1031.88
2018-09-24T04:20:14.607Z,1031.88
2018-09-24T04:21:14.377Z,1031.86
2018-09-24T04:22:14.221Z,1031.91
2018-09-24T04:23:14.279Z,1031.91
2018-09-24T04:24:14.833Z,1031.91
2018-09-24T04:25:14.396Z,1031.97
2018-09-24T04:26:14.600Z,1031.99
2018-09-24T04:27:14.416Z,1032
2018-09-24T04:28:14.477Z,1031.97
2018-09-24T04:29:14.416Z,1031.99
2018-09-24T04:30:14.451Z,1032
2018-09-24T04:31:14.259Z,1032.03
2018-09-24T04:32:14.379Z,1032.05
2018-09-24T04:33:14.319Z,1032.05
2018-09-24T04:34:14.299Z,1032.08
2018-09-24T04:35:14.213Z,1032.09
2018-09-24T04:36:14.364Z,1032.12
2018-09-24T04:37:14.444Z,1032.16
2018-09-24T04:38:14.381Z,1032.19
2018-09-24T04:39:14.416Z,1032.17
2018-09-24T04:40:14.231Z,1032.18
2018-09-24T04:41:14.340Z,1032.24
2018-09-24T04:42:14.656Z,1032.25
2018-09-24T04:43:14.616Z,1032.26
2018-09-24T04:44:14.397Z,1032.23
2018-09-24T04:45:14.332Z,1032.27
2018-09-24T04:46:14.181Z,1032.25
2018-09-24T04:47:14.180Z,1032.3
2018-09-24T04:48:14.164Z,1032.29
2018-09-24T04:49:14.357Z,1032.3
2018-09-24T04:50:14.186Z,1032.28
2018-09-24T04:51:14.358Z,1032.31
2018-09-24T04:52:14.343Z,1032.3
2018-09-24T04:53:14.361Z,1032.35
2018-09-24T04:54:14.332Z,1032.36
2018-09-24T04:55:14.348Z,1032.36
2018-09-24T04:56:14.315Z,1032.36
2018-09-24T04:57:14.408Z,1032.43
2018-09-24T04:58:14.357Z,1032.47
2018-09-24T04:59:14.346Z,1032.49
2018-09-24T05:00:14.381Z,1032.52
2018-09-24T05:01:14.286Z,1032.55
2018-09-24T05:02:14.327Z,1032.53
2018-09-24T05:03:14.506Z,1032.56
2018-09-24T05:04:14.731Z,1032.6
2018-09-24T05:05:14.313Z,1032.64
2018-09-24T05:06:14.364Z,1032.66
2018-09-24T05:07:14.168Z,1032.69
2018-09-24T05:08:14.304Z,1032.76
2018-09-24T05:09:14.308Z,1032.79
2018-09-24T05:10:14.319Z,1032.76
2018-09-24T05:11:14.183Z,1032.78
2018-09-24T05:12:14.147Z,1032.83
2018-09-24T05:13:14.385Z,1032.83
2018-09-24T05:14:14.377Z,1032.89
2018-09-24T05:15:14.374Z,1032.91
2018-09-24T05:16:14.562Z,1032.93
2018-09-24T05:17:14.311Z,1032.91
2018-09-24T05:18:14.351Z,1032.92
2018-09-24T05:19:14.345Z,1032.9
2018-09-24T05:20:14.636Z,1032.93
2018-09-24T05:21:14.184Z,1032.96
2018-09-24T05:22:14.306Z,1032.94
2018-09-24T05:23:14.410Z,1032.99
2018-09-24T05:24:14.233Z,1032.92
2018-09-24T05:25:14.355Z,1033.02
2018-09-24T05:26:14.198Z,1033.06
2018-09-24T05:27:14.169Z,1033.1
2018-09-24T05:28:14.449Z,1033.09
2018-09-24T05:29:14.413Z,1033.09
2018-09-24T05:30:14.303Z,1033.07
2018-09-24T05:31:14.294Z,1033.13
2018-09-24T05:32:14.719Z,1033.15
2018-09-24T05:33:14.283Z,1033.12
2018-09-24T05:34:14.425Z,1033.15
2018-09-24T05:35:14.123Z,1033.16
2018-09-24T05:36:14.095Z,1033.2
2018-09-24T05:37:14.637Z,1033.19
2018-09-24T05:38:14.102Z,1033.19
2018-09-24T05:39:14.269Z,1033.21
2018-09-24T05:40:14.246Z,1033.2
2018-09-24T05:41:14.467Z,1033.24
2018-09-24T05:42:14.299Z,1033.21
2018-09-24T05:43:14.152Z,1033.27
2018-09-24T05:44:14.226Z,1033.29
2018-09-24T05:45:14.129Z,1033.35
2018-09-24T05:46:14.648Z,1033.38
2018-09-24T05:47:14.275Z,1033.39
2018-09-24T05:48:14.088Z,1033.41
2018-09-24T05:49:14.287Z,1033.39
2018-09-24T05:50:14.362Z,1033.41
2018-09-24T05:51:14.153Z,1033.44
2018-09-24T05:52:14.239Z,1033.42
2018-09-24T05:53:14.545Z,1033.47
2018-09-24T05:54:14.376Z,1033.55
2018-09-24T05:55:14.246Z,1033.49
2018-09-24T05:56:14.370Z,1033.55
2018-09-24T05:57:14.073Z,1033.56
2018-09-24T05:58:14.649Z,1033.6
2018-09-24T05:59:14.285Z,1033.63
2018-09-24T06:00:14.291Z,1033.67
2018-09-24T06:01:14.053Z,1033.7
2018-09-24T06:02:14.345Z,1033.7
2018-09-24T06:03:14.132Z,1033.71
2018-09-24T06:04:14.061Z,1033.74
2018-09-24T06:05:14.228Z,1033.77
2018-09-24T06:06:14.076Z,1033.75
2018-09-24T06:07:14.044Z,1033.71
2018-09-24T06:08:14.292Z,1033.79
2018-09-24T06:09:14.220Z,1033.71
2018-09-24T06:10:14.198Z,1033.76
2018-09-24T06:11:14.038Z,1033.78
2018-09-24T06:12:14.059Z,1033.78
2018-09-24T06:13:14.168Z,1033.83
2018-09-24T06:14:14.195Z,1033.81
2018-09-24T06:15:14.040Z,1033.86
2018-09-24T06:16:14.069Z,1033.87
2018-09-24T06:17:14.244Z,1033.86
2018-09-24T06:18:14.209Z,1033.85
2018-09-24T06:19:14.211Z,1033.88
2018-09-24T06:20:14.193Z,1033.88
2018-09-24T06:21:14.176Z,1033.91
2018-09-24T06:22:14.203Z,1033.88
2018-09-24T06:23:14.195Z,1033.88
2018-09-24T06:24:14.115Z,1033.87
2018-09-24T06:25:14.467Z,1033.94
2018-09-24T06:26:14.250Z,1033.94
2018-09-24T06:27:14.231Z,1033.96
2018-09-24T06:28:14.254Z,1034
2018-09-24T06:29:14.219Z,1033.99
2018-09-24T06:30:14.221Z,1033.99
2018-09-24T06:31:14.272Z,1034.03
2018-09-24T06:32:14.137Z,1034.01
2018-09-24T06:33:14.181Z,1034.03
2018-09-24T06:34:14.423Z,1034.03
2018-09-24T06:35:14.222Z,1034.06
2018-09-24T06:36:14.033Z,1034.05
2018-09-24T06:37:14.187Z,1034.08
2018-09-24T06:38:14.192Z,1034.07
2018-09-24T06:39:14.368Z,1034.1
2018-09-24T06:40:14.209Z,1034.11
2018-09-24T06:41:14.266Z,1034.17
2018-09-24T06:42:14.082Z,1034.21
2018-09-24T06:43:14.126Z,1034.22
2018-09-24T06:44:14.306Z,1034.23
2018-09-24T06:45:14.231Z,1034.26
2018-09-24T06:46:14.149Z,1034.28
2018-09-24T06:47:14.227Z,1034.3
2018-09-24T06:48:14.262Z,1034.31
2018-09-24T06:49:14.157Z,1034.36
2018-09-24T06:50:14.178Z,1034.33
2018-09-24T06:51:14.157Z,1034.42
2018-09-24T06:52:14.151Z,1034.33
2018-09-24T06:53:14.203Z,1034.35
2018-09-24T06:54:14.203Z,1034.4
2018-09-24T06:55:14.263Z,1034.39
2018-09-24T06:56:14.244Z,1034.43
2018-09-24T06:57:14.133Z,1034.47
2018-09-24T06:58:14.048Z,1034.49
2018-09-24T06:59:14.044Z,1034.46
2018-09-24T07:00:14.159Z,1034.49
2018-09-24T07:01:14.327Z,1034.49
2018-09-24T07:02:14.066Z,1034.53
2018-09-24T07:03:14.049Z,1034.52
2018-09-24T07:04:14.176Z,1034.52
2018-09-24T07:05:14.056Z,1034.57
2018-09-24T07:06:14.147Z,1034.54
2018-09-24T07:07:14.216Z,1034.57
2018-09-24T07:08:14.260Z,1034.54
2018-09-24T07:09:14.137Z,1034.58
2018-09-24T07:10:14.119Z,1034.61
2018-09-24T07:11:14.140Z,1034.59
2018-09-24T07:12:14.193Z,1034.66
2018-09-24T07:13:16.657Z,1034.64
2018-09-24T07:14:14.395Z,1034.68
2018-09-24T07:15:14.120Z,1034.71
2018-09-24T07:16:14.278Z,1034.7
2018-09-24T07:17:14.125Z,1034.69
2018-09-24T07:18:14.136Z,1034.71
2018-09-24T07:19:14.177Z,1034.8
2018-09-24T07:20:14.296Z,1034.8
2018-09-24T07:21:14.089Z,1034.81
2018-09-24T07:22:14.254Z,1034.81
2018-09-24T07:23:14.126Z,1034.82
2018-09-24T07:24:14.037Z,1034.84
2018-09-24T07:25:14.295Z,1034.87
2018-09-24T07:26:14.019Z,1034.84
2018-09-24T07:27:14.132Z,1034.86
2018-09-24T07:28:14.153Z,1034.89
2018-09-24T07:29:14.168Z,1034.87
2018-09-24T07:30:14.140Z,1034.92
2018-09-24T07:31:14.088Z,1034.95
2018-09-24T07:32:14.134Z,1034.95
2018-09-24T07:33:14.313Z,1034.93
2018-09-24T07:34:14.091Z,1034.94
2018-09-24T07:35:14.225Z,1034.97
2018-09-24T07:36:13.968Z,1034.99
2018-09-24T07:37:14.096Z,1034.99
2018-09-24T07:38:13.968Z,1035.04
2018-09-24T07:39:14.075Z,1035.06
2018-09-24T07:40:14.184Z,1035.07
2018-09-24T07:41:14.072Z,1035.06
2018-09-24T07:42:14.102Z,1035.1
2018-09-24T07:43:14.247Z,1035.1
2018-09-24T07:44:14.110Z,1035.11
2018-09-24T07:45:13.956Z,1035.09
2018-09-24T07:46:14.077Z,1035.15
2018-09-24T07:47:14.126Z,1035.12
2018-09-24T07:48:13.966Z,1035.16
2018-09-24T07:49:14.105Z,1035.21
2018-09-24T07:50:14.021Z,1035.24
2018-09-24T07:51:14.129Z,1035.26
2018-09-24T07:52:14.013Z,1035.24
2018-09-24T07:53:14.133Z,1035.25
2018-09-24T07:54:14.143Z,1035.26
2018-09-24T07:55:14.046Z,1035.29
2018-09-24T07:56:14.197Z,1035.26
2018-09-24T07:57:14.066Z,1035.26
2018-09-24T07:58:14.100Z,1035.34
2018-09-24T07:59:14.077Z,1035.29
2018-09-24T08:00:13.973Z,1035.33
2018-09-24T08:01:13.983Z,1035.33
2018-09-24T08:02:14.115Z,1035.33
2018-09-24T08:03:13.897Z,1035.28
2018-09-24T08:04:14.015Z,1035.32
2018-09-24T08:05:14.062Z,1035.39
2018-09-24T08:06:14.294Z,1035.43
2018-09-24T08:07:14.367Z,1035.45
2018-09-24T08:08:14.190Z,1035.47
2018-09-24T08:09:14.024Z,1035.53
2018-09-24T08:10:14.213Z,1035.55
2018-09-24T08:11:14.292Z,1035.55
2018-09-24T08:12:14.496Z,1035.56
2018-09-24T08:13:14.177Z,1035.62
2018-09-24T08:14:14.492Z,1035.64
2018-09-24T08:15:13.881Z,1035.63
2018-09-24T08:16:14.317Z,1035.6
2018-09-24T08:17:13.999Z,1035.62
2018-09-24T08:18:14.199Z,1035.66
2018-09-24T08:19:14.057Z,1035.6
2018-09-24T08:20:14.052Z,1035.63
2018-09-24T08:21:14.354Z,1035.73
2018-09-24T08:22:13.965Z,1035.69
2018-09-24T08:23:14.123Z,1035.72
2018-09-24T08:24:14.172Z,1035.74
2018-09-24T08:25:14.017Z,1035.83
2018-09-24T08:26:14.453Z,1035.82
2018-09-24T08:27:14.163Z,1035.84
2018-09-24T08:28:13.967Z,1035.8
2018-09-24T08:29:13.981Z,1035.79
2018-09-24T08:30:14.057Z,1035.72
2018-09-24T08:31:14.021Z,1035.77
2018-09-24T08:32:14.066Z,1035.71
2018-09-24T08:33:14.087Z,1035.73
2018-09-24T08:34:14.048Z,1035.68
2018-09-24T08:35:13.920Z,1035.74
2018-09-24T08:36:14.185Z,1035.73
2018-09-24T08:37:13.856Z,1035.76
2018-09-24T08:38:13.930Z,1035.7
2018-09-24T08:39:14.093Z,1035.71
2018-09-24T08:40:14.014Z,1035.71
2018-09-24T08:41:14.158Z,1035.7
2018-09-24T08:42:13.993Z,1035.76
2018-09-24T08:43:14.036Z,1035.77
2018-09-24T08:44:14.265Z,1035.78
2018-09-24T08:45:14.203Z,1035.86
2018-09-24T08:46:14.014Z,1035.84
2018-09-24T08:47:14.183Z,1035.94
2018-09-24T08:48:14.018Z,1035.9
2018-09-24T08:49:14.186Z,1035.9
2018-09-24T08:50:14.054Z,1035.93
2018-09-24T08:51:14.020Z,1035.94
2018-09-24T08:52:14.041Z,1035.96
2018-09-24T08:53:14.042Z,1035.91
2018-09-24T08:54:13.864Z,1035.92
2018-09-24T08:55:14.023Z,1035.94
2018-09-24T08:56:14.034Z,1035.95
2018-09-24T08:57:14.189Z,1036.01
2018-09-24T08:58:13.809Z,1036.04
2018-09-24T08:59:13.986Z,1036.04
2018-09-24T09:00:13.890Z,1036.02
2018-09-24T09:01:13.975Z,1036.03
2018-09-24T09:02:14.080Z,1035.99
2018-09-24T09:03:13.976Z,1035.99
2018-09-24T09:04:14.180Z,1035.98
2018-09-24T09:05:13.965Z,1036.01
2018-09-24T09:06:13.973Z,1036
2018-09-24T09:07:14.150Z,1036
2018-09-24T09:08:14.107Z,1035.94
2018-09-24T09:09:13.996Z,1035.97
2018-09-24T09:10:14.068Z,1035.99
2018-09-24T09:11:14.022Z,1035.98
2018-09-24T09:12:13.956Z,1035.95
2018-09-24T09:13:14.058Z,1035.9
2018-09-24T09:14:13.898Z,1035.94
2018-09-24T09:15:13.842Z,1035.93
2018-09-24T09:16:14.064Z,1035.99
2018-09-24T09:17:13.782Z,1035.99
2018-09-24T09:18:14.109Z,1036
2018-09-24T09:19:14.106Z,1036.01
2018-09-24T09:20:14.118Z,1036.01
2018-09-24T09:21:14.007Z,1036
2018-09-24T09:22:14.001Z,1035.98
2018-09-24T09:23:13.949Z,1036
2018-09-24T09:24:13.908Z,1036
2018-09-24T09:25:13.998Z,1036.01
2018-09-24T09:26:14.220Z,1036.03
2018-09-24T09:27:13.789Z,1036.11
2018-09-24T09:28:13.998Z,1036.03
2018-09-24T09:29:14.219Z,1036.04
2018-09-24T09:30:13.797Z,1036.02
2018-09-24T09:31:13.919Z,1036.02
2018-09-24T09:32:14.018Z,1036.02
2018-09-24T09:33:14.028Z,1036.05
2018-09-24T09:34:13.961Z,1036
2018-09-24T09:35:14.151Z,1036.03
2018-09-24T09:36:14.021Z,1036.04
2018-09-24T09:37:14.016Z,1036
2018-09-24T09:38:14.067Z,1036.04
2018-09-24T09:39:13.762Z,1036.05
2018-09-24T09:40:13.921Z,1036.05
2018-09-24T09:41:14.439Z,1036.01
2018-09-24T09:42:14.000Z,1035.98
2018-09-24T09:43:13.995Z,1036
2018-09-24T09:44:13.924Z,1036.02
2018-09-24T09:45:14.051Z,1036.02
2018-09-24T09:46:13.964Z,1036.02
2018-09-24T09:47:13.931Z,1036.02
2018-09-24T09:48:14.104Z,1035.93
2018-09-24T09:49:13.790Z,1035.92
2018-09-24T09:50:14.025Z,1035.93
2018-09-24T09:51:14.179Z,1035.9
2018-09-24T09:52:13.773Z,1035.9
2018-09-24T09:53:13.934Z,1035.9
2018-09-24T09:54:13.767Z,1035.85
2018-09-24T09:55:13.974Z,1035.83
2018-09-24T09:56:14.064Z,1035.82
2018-09-24T09:57:13.958Z,1035.79
2018-09-24T09:58:14.028Z,1035.79
2018-09-24T09:59:14.280Z,1035.75
2018-09-24T10:00:13.808Z,1035.77
2018-09-24T10:01:13.710Z,1035.75
2018-09-24T10:02:13.981Z,1035.83
2018-09-24T10:03:14.043Z,1035.8
2018-09-24T10:04:13.812Z,1035.8
2018-09-24T10:05:13.752Z,1035.85
2018-09-24T10:06:13.790Z,1035.87
2018-09-24T10:07:14.246Z,1035.79
2018-09-24T10:08:13.721Z,1035.81
2018-09-24T10:09:14.088Z,1035.77
2018-09-24T10:10:14.016Z,1035.82
2018-09-24T10:11:14.239Z,1035.84
2018-09-24T10:12:13.989Z,1035.84
2018-09-24T10:13:13.693Z,1035.78
2018-09-24T10:14:14.041Z,1035.84
2018-09-24T10:15:13.977Z,1035.87
2018-09-24T10:16:13.792Z,1035.83
2018-09-24T10:17:13.908Z,1035.9
2018-09-24T10:18:13.713Z,1035.89
2018-09-24T10:19:13.947Z,1035.95
2018-09-24T10:20:13.850Z,1035.98
2018-09-24T10:21:13.888Z,1035.99
2018-09-24T10:22:13.999Z,1035.98
2018-09-24T10:23:13.969Z,1036.01
2018-09-24T10:24:14.191Z,1036.02
2018-09-24T10:25:13.885Z,1035.99
2018-09-24T10:26:14.095Z,1036.01
2018-09-24T10:27:13.694Z,1036.03
2018-09-24T10:28:13.951Z,1035.97
2018-09-24T10:29:21.050Z,1036
2018-09-24T10:30:14.153Z,1035.99
2018-09-24T10:31:13.714Z,1035.96
2018-09-24T10:32:13.839Z,1035.98
2018-09-24T10:33:13.842Z,1036.03
2018-09-24T10:34:15.323Z,1036.06
2018-09-24T10:35:15.540Z,1036.05
2018-09-24T10:36:13.688Z,1036.02
2018-09-24T10:37:15.191Z,1035.92
2018-09-24T10:38:13.979Z,1036.02
2018-09-24T10:39:13.670Z,1036.02
2018-09-24T10:40:13.711Z,1036.05
2018-09-24T10:41:13.693Z,1036.02
2018-09-24T10:42:13.641Z,1036.04
2018-09-24T10:43:13.797Z,1036.07
2018-09-24T10:44:13.689Z,1036.07
2018-09-24T10:45:13.734Z,1036.09
2018-09-24T10:46:14.008Z,1036.07
2018-09-24T10:47:13.660Z,1036.07
2018-09-24T10:48:13.844Z,1036.06
2018-09-24T10:49:13.640Z,1036.05
2018-09-24T10:50:14.063Z,1036.01
2018-09-24T10:51:14.047Z,1035.95
2018-09-24T10:52:13.814Z,1035.9
2018-09-24T10:53:13.874Z,1035.88
2018-09-24T10:54:13.750Z,1035.91
2018-09-24T10:55:13.770Z,1035.87
2018-09-24T10:56:13.791Z,1035.93
2018-09-24T10:57:13.873Z,1035.97
2018-09-24T10:58:13.783Z,1035.93
2018-09-24T10:59:13.956Z,1035.91
2018-09-24T11:00:13.931Z,1035.86
2018-09-24T11:01:14.013Z,1035.87
2018-09-24T11:02:13.807Z,1035.83
2018-09-24T11:03:14.122Z,1035.85
2018-09-24T11:04:13.821Z,1035.91
2018-09-24T11:05:13.723Z,1035.97
2018-09-24T11:06:14.168Z,1035.93
2018-09-24T11:07:13.803Z,1035.98
2018-09-24T11:08:13.744Z,1036
2018-09-24T11:09:13.764Z,1036.01
2018-09-24T11:10:14.302Z,1035.98
2018-09-24T11:11:13.789Z,1035.99
2018-09-24T11:12:13.638Z,1036
2018-09-24T11:13:13.811Z,1036
2018-09-24T11:14:13.993Z,1035.99
2018-09-24T11:15:14.018Z,1035.98
2018-09-24T11:16:14.525Z,1036.01
2018-09-24T11:17:15.165Z,1035.93
2018-09-24T11:18:14.028Z,1035.94
2018-09-24T11:19:13.815Z,1035.95
2018-09-24T11:20:13.728Z,1035.93
2018-09-24T11:21:13.956Z,1035.94
2018-09-24T11:22:13.697Z,1035.93
2018-09-24T11:23:13.751Z,1035.91
2018-09-24T11:24:14.066Z,1035.9
2018-09-24T11:25:14.066Z,1035.87
2018-09-24T11:27:13.753Z,1035.9
2018-09-24T11:28:14.198Z,1035.89
2018-09-24T11:29:14.022Z,1035.89
2018-09-24T11:30:14.114Z,1035.91
2018-09-24T11:31:13.793Z,1035.88
2018-09-24T11:32:14.211Z,1035.86
2018-09-24T11:33:14.013Z,1035.84
2018-09-24T11:34:14.329Z,1035.84
2018-09-24T11:35:13.828Z,1035.74
2018-09-24T11:36:13.946Z,1035.77
2018-09-24T11:37:13.570Z,1035.73
2018-09-24T11:38:13.859Z,1035.72
2018-09-24T11:39:14.075Z,1035.7
2018-09-24T11:40:13.967Z,1035.79
2018-09-24T11:41:13.865Z,1035.72
2018-09-24T11:42:14.180Z,1035.69
2018-09-24T11:43:14.097Z,1035.73
2018-09-24T11:44:13.890Z,1035.72
2018-09-24T11:45:13.894Z,1035.72
2018-09-24T11:46:13.925Z,1035.68
2018-09-24T11:47:13.956Z,1035.62
2018-09-24T11:48:14.221Z,1035.66
2018-09-24T11:49:13.932Z,1035.69
2018-09-24T11:50:13.726Z,1035.67
2018-09-24T11:51:13.937Z,1035.64
2018-09-24T11:52:13.958Z,1035.66
2018-09-24T11:53:13.747Z,1035.66
2018-09-24T11:54:13.850Z,1035.66
2018-09-24T11:55:13.757Z,1035.66
2018-09-24T11:56:14.032Z,1035.62
2018-09-24T11:57:14.101Z,1035.57
2018-09-24T11:58:13.782Z,1035.58
2018-09-24T11:59:13.787Z,1035.55
2018-09-24T12:00:13.806Z,1035.53
2018-09-24T12:01:13.800Z,1035.54
2018-09-24T12:02:13.973Z,1035.58
2018-09-24T12:03:14.130Z,1035.52
2018-09-24T12:04:13.729Z,1035.52
2018-09-24T12:05:13.833Z,1035.47
2018-09-24T12:06:14.054Z,1035.51
2018-09-24T12:07:13.745Z,1035.46
2018-09-24T12:08:13.850Z,1035.52
2018-09-24T12:09:13.805Z,1035.43
2018-09-24T12:10:14.103Z,1035.4